CheckWX is a tool to help pilots better visualize weather data.  It is not intended as a substitute for an official pre-flight weather briefing.

02:35:18 UTC

LIPH TAF
Treviso-Sant'Angelo Airport
Treviso, Italy
TAF LIPH 222300Z 2300/2324 04012KT 7000 RA BKN010 BKN040 TEMPO 2310/2318 4000 TSRA

Apr-23@
00:00 UTC

Apr-23 @ 00:00 UTC

Apr-24@
00:00 UTC

Apr-24 @ 00:00 UTC

TAF LIPH 222300Z 2300/2324 04012KT 7000 RA BKN010 BKN040
Wind
  • 040° at 12 KTS
Conditions
Rain
Cloud Levels
  • Broken at 1,000' AGL
  • Broken at 4,000' AGL

Apr-23@
10:00 UTC

Apr-23 @ 10:00 UTC

Apr-23@
18:00 UTC

Apr-23 @ 18:00 UTC

TEMPO 2310/2318 4000 TSRA

Temporary

Temporary Changes expected for less than half the time period

Conditions
Thunderstorm, Rain